FNBG/BUG METAR and TAF weather

Enter ICAO airport designator
Station Type Date Time Source
FNBG METAR 2020/06/25 11:00 UTC NOAA

FNBG 251100Z 33006KT CAVOK 25/21 Q1013


Station Type Date Time Source
FNBG Decoded METAR 2020/06/25 11:00 UTC NOAA

Monbaca Benguela , Angola (FNBG) 12-35S 013-25E 4M
Jun 25, 2020 - 07:00 AM EDT / 2020.06.25 1100 UTC
Wind: from the NNW (330 degrees) at 7 MPH (6 KT):0
Visibility: greater than 7 mile(s):0
Temperature: 77 F (25 C)
Dew Point: 69 F (21 C)
Relative Humidity: 78%
Pressure (altimeter): 29.91 in. Hg (1013 hPa)
ob: FNBG 251100Z 33006KT CAVOK 25/21 Q1013
cycle: 11

Station Type Date Time Source
FNBG TAF 2020/07/03 12:00 UTC NOAA

TAF FNBG 031100Z 0312/0324 31008KT 9999 SCT018
TEMPO 0315/0320 CAVOK
BECMG 0321/0323 VRB03KT

Example: see airport list